createdAt,value
2022-12-03T00:00:55.632Z,0.00
2022-12-03T00:01:55.646Z,0.00
2022-12-03T00:02:55.771Z,0.00
2022-12-03T00:03:55.808Z,0.00
2022-12-03T00:04:55.832Z,0.00
2022-12-03T00:05:55.606Z,0.00
2022-12-03T00:06:55.566Z,0.00
2022-12-03T00:07:55.684Z,0.00
2022-12-03T00:08:55.595Z,0.00
2022-12-03T00:09:55.536Z,0.00
2022-12-03T00:10:55.525Z,0.00
2022-12-03T00:11:55.518Z,0.00
2022-12-03T00:12:55.538Z,0.00
2022-12-03T00:13:55.480Z,0.00
2022-12-03T00:14:55.802Z,0.00
2022-12-03T00:15:55.572Z,0.00
2022-12-03T00:16:55.471Z,0.00
2022-12-03T00:17:55.506Z,0.00
2022-12-03T00:18:55.429Z,0.00
2022-12-03T00:19:55.434Z,0.00
2022-12-03T00:20:55.440Z,0.00
2022-12-03T00:21:56.431Z,0.00
2022-12-03T00:22:55.432Z,0.00
2022-12-03T00:23:55.447Z,0.00
2022-12-03T00:24:55.764Z,0.00
2022-12-03T00:25:55.375Z,0.00
2022-12-03T00:26:55.339Z,0.00
2022-12-03T00:27:55.332Z,0.00
2022-12-03T00:28:55.331Z,0.00
2022-12-03T00:29:55.339Z,0.00
2022-12-03T00:30:55.400Z,0.00
2022-12-03T00:31:55.300Z,0.00
2022-12-03T00:32:55.283Z,0.00
2022-12-03T00:33:55.293Z,0.00
2022-12-03T00:34:55.600Z,0.00
2022-12-03T00:35:55.247Z,0.00
2022-12-03T00:36:55.238Z,0.00
2022-12-03T00:37:55.263Z,0.00
2022-12-03T00:38:55.274Z,0.00
2022-12-03T00:39:55.225Z,0.00
2022-12-03T00:40:55.190Z,0.00
2022-12-03T00:41:55.189Z,0.00
2022-12-03T00:42:55.185Z,0.00
2022-12-03T00:43:55.176Z,0.00
2022-12-03T00:44:55.503Z,0.00
2022-12-03T00:45:55.140Z,0.00
2022-12-03T00:46:55.197Z,0.00
2022-12-03T00:47:55.143Z,0.00
2022-12-03T00:48:55.113Z,0.00
2022-12-03T00:49:55.116Z,0.00
2022-12-03T00:50:55.129Z,0.00
2022-12-03T00:51:55.086Z,0.00
2022-12-03T00:52:55.093Z,0.00
2022-12-03T00:53:55.060Z,0.00
2022-12-03T00:54:55.439Z,0.00
2022-12-03T00:55:55.079Z,0.00
2022-12-03T00:56:55.013Z,0.00
2022-12-03T00:57:55.027Z,0.00
2022-12-03T00:58:55.020Z,0.00
2022-12-03T00:59:55.010Z,0.00
2022-12-03T01:00:55.018Z,0.00
2022-12-03T01:01:55.067Z,0.00
2022-12-03T01:02:54.957Z,0.00
2022-12-03T01:03:54.930Z,0.00
2022-12-03T01:04:55.312Z,0.00
2022-12-03T01:05:54.964Z,0.00
2022-12-03T01:06:54.918Z,0.00
2022-12-03T01:07:55.017Z,0.00
2022-12-03T01:08:54.896Z,0.00
2022-12-03T01:09:54.880Z,0.00
2022-12-03T01:10:54.885Z,0.00
2022-12-03T01:11:54.862Z,0.00
2022-12-03T01:12:54.848Z,0.00
2022-12-03T01:13:54.872Z,0.00
2022-12-03T01:14:55.225Z,0.00
2022-12-03T01:15:54.989Z,0.00
2022-12-03T01:16:54.818Z,0.00
2022-12-03T01:17:54.816Z,0.00
2022-12-03T01:18:54.793Z,0.00
2022-12-03T01:19:54.761Z,0.00
2022-12-03T01:20:54.803Z,0.00
2022-12-03T01:21:54.799Z,0.00
2022-12-03T01:22:54.762Z,0.00
2022-12-03T01:23:54.735Z,0.00
2022-12-03T01:24:54.965Z,0.00
2022-12-03T01:25:54.750Z,0.00
2022-12-03T01:26:54.715Z,0.00
2022-12-03T01:27:54.721Z,0.00
2022-12-03T01:28:54.702Z,0.00
2022-12-03T01:29:54.676Z,0.00
2022-12-03T01:30:54.699Z,0.00
2022-12-03T01:31:54.670Z,0.00
2022-12-03T01:32:54.653Z,0.00
2022-12-03T01:33:54.629Z,0.00
2022-12-03T01:34:55.118Z,0.00
2022-12-03T01:35:54.592Z,0.00
2022-12-03T01:36:54.649Z,0.00
2022-12-03T01:37:54.597Z,0.00
2022-12-03T01:38:54.574Z,0.00
2022-12-03T01:39:54.564Z,0.00
2022-12-03T01:40:54.571Z,0.00
2022-12-03T01:41:54.544Z,0.00
2022-12-03T01:42:54.556Z,0.00
2022-12-03T01:43:54.537Z,0.00
2022-12-03T01:44:54.901Z,0.00
2022-12-03T01:45:54.490Z,0.00
2022-12-03T01:46:54.599Z,0.00
2022-12-03T01:47:54.475Z,0.00
2022-12-03T01:48:54.458Z,0.00
2022-12-03T01:49:54.459Z,0.00
2022-12-03T01:50:54.439Z,0.00
2022-12-03T01:51:54.442Z,0.00
2022-12-03T01:52:54.419Z,0.00
2022-12-03T01:53:54.411Z,0.00
2022-12-03T01:54:54.685Z,0.00
2022-12-03T01:55:54.373Z,0.00
2022-12-03T01:56:54.384Z,0.00
2022-12-03T01:57:54.378Z,0.00
2022-12-03T01:58:54.385Z,0.00
2022-12-03T01:59:54.351Z,0.00
2022-12-03T02:00:54.344Z,0.00
2022-12-03T02:01:54.368Z,0.00
2022-12-03T02:02:54.316Z,0.00
2022-12-03T02:03:54.373Z,0.00
2022-12-03T02:04:54.877Z,0.00
2022-12-03T02:05:54.304Z,0.00
2022-12-03T02:06:54.281Z,0.00
2022-12-03T02:07:54.326Z,0.00
2022-12-03T02:08:54.274Z,0.00
2022-12-03T02:09:54.235Z,0.00
2022-12-03T02:10:54.240Z,0.00
2022-12-03T02:11:54.232Z,0.00
2022-12-03T02:12:54.218Z,0.00
2022-12-03T02:13:54.209Z,0.00
2022-12-03T02:14:54.444Z,0.00
2022-12-03T02:15:54.191Z,0.00
2022-12-03T02:16:54.150Z,0.00
2022-12-03T02:17:54.185Z,0.00
2022-12-03T02:18:54.181Z,0.00
2022-12-03T02:19:54.158Z,0.00
2022-12-03T02:20:54.122Z,0.00
2022-12-03T02:21:54.133Z,0.00
2022-12-03T02:22:54.078Z,0.00
2022-12-03T02:23:54.118Z,0.00
2022-12-03T02:24:54.507Z,0.00
2022-12-03T02:25:54.072Z,0.00
2022-12-03T02:26:54.059Z,0.00
2022-12-03T02:27:54.053Z,0.00
2022-12-03T02:28:54.045Z,0.00
2022-12-03T02:29:54.022Z,0.00
2022-12-03T02:30:54.009Z,0.00
2022-12-03T02:31:54.069Z,0.00
2022-12-03T02:32:54.007Z,0.00
2022-12-03T02:33:54.043Z,0.00
2022-12-03T02:34:54.198Z,0.00
2022-12-03T02:35:55.307Z,0.00
2022-12-03T02:36:53.966Z,0.00
2022-12-03T02:37:53.951Z,0.00
2022-12-03T02:38:53.913Z,0.00
2022-12-03T02:39:53.945Z,0.00
2022-12-03T02:40:53.881Z,0.00
2022-12-03T02:41:53.877Z,0.00
2022-12-03T02:42:53.877Z,0.00
2022-12-03T02:43:53.874Z,0.00
2022-12-03T02:44:54.189Z,0.00
2022-12-03T02:45:53.866Z,0.00
2022-12-03T02:46:53.870Z,0.00
2022-12-03T02:47:53.831Z,0.00
2022-12-03T02:48:53.855Z,0.00
2022-12-03T02:49:53.804Z,0.00
2022-12-03T02:50:53.843Z,0.00
2022-12-03T02:51:53.825Z,0.00
2022-12-03T02:52:53.761Z,0.00
2022-12-03T02:53:53.777Z,0.00
2022-12-03T02:54:54.025Z,0.00
2022-12-03T02:55:53.741Z,0.00
2022-12-03T02:56:53.752Z,0.00
2022-12-03T02:57:53.728Z,0.00
2022-12-03T02:58:53.721Z,0.00
2022-12-03T02:59:53.693Z,0.00
2022-12-03T03:00:53.751Z,0.00
2022-12-03T03:01:53.757Z,0.00
2022-12-03T03:02:53.672Z,0.00
2022-12-03T03:03:53.687Z,0.00
2022-12-03T03:04:53.913Z,0.00
2022-12-03T03:05:53.651Z,0.00
2022-12-03T03:06:53.640Z,0.00
2022-12-03T03:07:53.643Z,0.00
2022-12-03T03:08:53.618Z,0.00
2022-12-03T03:09:53.589Z,0.00
2022-12-03T03:10:53.559Z,0.00
2022-12-03T03:11:53.870Z,0.00
2022-12-03T03:12:53.581Z,0.00
2022-12-03T03:13:53.537Z,0.00
2022-12-03T03:14:53.947Z,0.00
2022-12-03T03:15:53.619Z,0.00
2022-12-03T03:16:53.605Z,0.00
2022-12-03T03:17:53.541Z,0.00
2022-12-03T03:18:53.483Z,0.00
2022-12-03T03:19:53.505Z,0.00
2022-12-03T03:20:53.477Z,0.00
2022-12-03T03:21:53.464Z,0.00
2022-12-03T03:22:53.454Z,0.00
2022-12-03T03:23:53.472Z,0.00
2022-12-03T03:24:53.706Z,0.00
2022-12-03T03:25:53.413Z,0.00
2022-12-03T03:26:53.427Z,0.00
2022-12-03T03:27:53.403Z,0.00
2022-12-03T03:28:53.374Z,0.00
2022-12-03T03:29:53.407Z,0.00
2022-12-03T03:30:53.382Z,0.00
2022-12-03T03:31:53.380Z,0.00
2022-12-03T03:32:53.345Z,0.00
2022-12-03T03:33:53.357Z,0.00
2022-12-03T03:34:53.728Z,0.00
2022-12-03T03:35:53.313Z,0.00
2022-12-03T03:36:53.307Z,0.00
2022-12-03T03:37:53.280Z,0.00
2022-12-03T03:38:53.280Z,0.00
2022-12-03T03:39:53.278Z,0.00
2022-12-03T03:40:53.254Z,0.00
2022-12-03T03:41:53.252Z,0.00
2022-12-03T03:42:53.299Z,0.00
2022-12-03T03:43:53.218Z,0.00
2022-12-03T03:44:53.592Z,0.00
2022-12-03T03:45:53.230Z,0.00
2022-12-03T03:46:53.203Z,0.00
2022-12-03T03:47:53.182Z,0.00
2022-12-03T03:48:53.183Z,0.00
2022-12-03T03:49:53.150Z,0.00
2022-12-03T03:50:53.153Z,0.00
2022-12-03T03:51:53.129Z,0.00
2022-12-03T03:52:53.134Z,0.00
2022-12-03T03:53:53.113Z,0.00
2022-12-03T03:54:53.398Z,0.00
2022-12-03T03:55:53.119Z,0.00
2022-12-03T03:56:53.081Z,0.00
2022-12-03T03:57:53.074Z,0.00
2022-12-03T03:58:53.087Z,0.00
2022-12-03T03:59:53.056Z,0.00
2022-12-03T04:00:53.159Z,0.00
2022-12-03T04:01:53.017Z,0.00
2022-12-03T04:02:53.008Z,0.00
2022-12-03T04:03:53.045Z,0.00
2022-12-03T04:04:53.377Z,0.00
2022-12-03T04:05:53.038Z,0.00
2022-12-03T04:06:52.994Z,0.00
2022-12-03T04:07:53.048Z,0.00
2022-12-03T04:08:52.961Z,0.00
2022-12-03T04:09:52.966Z,0.00
2022-12-03T04:10:52.917Z,0.00
2022-12-03T04:11:52.915Z,0.00
2022-12-03T04:12:52.910Z,0.00
2022-12-03T04:13:52.896Z,0.00
2022-12-03T04:14:53.246Z,0.00
2022-12-03T04:15:52.909Z,0.00
2022-12-03T04:16:52.924Z,0.00
2022-12-03T04:17:52.840Z,0.00
2022-12-03T04:18:52.860Z,0.00
2022-12-03T04:19:52.828Z,0.00
2022-12-03T04:20:52.827Z,0.00
2022-12-03T04:21:52.829Z,0.00
2022-12-03T04:22:52.798Z,0.00
2022-12-03T04:23:52.808Z,0.00
2022-12-03T04:24:53.134Z,0.00
2022-12-03T04:25:52.772Z,0.00
2022-12-03T04:26:52.758Z,0.00
2022-12-03T04:27:52.757Z,0.00
2022-12-03T04:28:53.596Z,0.00
2022-12-03T04:29:52.722Z,0.00
2022-12-03T04:30:52.777Z,0.00
2022-12-03T04:31:52.716Z,0.00
2022-12-03T04:32:52.682Z,0.00
2022-12-03T04:33:52.730Z,0.00
2022-12-03T04:34:53.038Z,0.00
2022-12-03T04:35:52.746Z,0.00
2022-12-03T04:36:52.708Z,0.00
2022-12-03T04:37:52.627Z,0.00
2022-12-03T04:38:52.626Z,0.00
2022-12-03T04:39:52.625Z,0.00
2022-12-03T04:40:52.608Z,0.00
2022-12-03T04:41:52.602Z,0.00
2022-12-03T04:42:52.578Z,0.00
2022-12-03T04:43:52.584Z,0.00
2022-12-03T04:44:52.872Z,0.00
2022-12-03T04:45:52.601Z,0.00
2022-12-03T04:46:52.593Z,0.00
2022-12-03T04:47:52.533Z,0.00
2022-12-03T04:48:52.555Z,0.00
2022-12-03T04:49:52.539Z,0.00
2022-12-03T04:50:52.514Z,0.00
2022-12-03T04:51:52.491Z,0.00
2022-12-03T04:52:52.530Z,0.00
2022-12-03T04:53:52.528Z,0.00
2022-12-03T04:54:52.969Z,0.00
2022-12-03T04:55:52.442Z,0.00
2022-12-03T04:56:52.414Z,0.00
2022-12-03T04:57:52.422Z,0.00
2022-12-03T04:58:52.400Z,0.00
2022-12-03T04:59:52.410Z,0.00
2022-12-03T05:00:52.431Z,0.00
2022-12-03T05:01:52.453Z,0.00
2022-12-03T05:02:52.465Z,0.00
2022-12-03T05:03:52.355Z,0.00
2022-12-03T05:04:52.772Z,0.00
2022-12-03T05:05:52.329Z,0.00
2022-12-03T05:06:52.333Z,0.00
2022-12-03T05:07:52.430Z,0.00
2022-12-03T05:08:52.281Z,0.00
2022-12-03T05:09:52.300Z,0.00
2022-12-03T05:10:52.277Z,0.00
2022-12-03T05:11:52.256Z,0.00
2022-12-03T05:12:52.255Z,0.00
2022-12-03T05:13:52.252Z,0.00
2022-12-03T05:14:52.655Z,0.00
2022-12-03T05:15:52.238Z,0.00
2022-12-03T05:16:52.279Z,0.00
2022-12-03T05:17:52.260Z,0.00
2022-12-03T05:18:52.185Z,0.00
2022-12-03T05:19:52.210Z,0.00
2022-12-03T05:20:53.636Z,0.00
2022-12-03T05:21:52.157Z,0.00
2022-12-03T05:22:52.154Z,0.00
2022-12-03T05:23:52.139Z,0.00
2022-12-03T05:24:52.452Z,0.00
2022-12-03T05:25:52.120Z,0.00
2022-12-03T05:26:52.144Z,0.00
2022-12-03T05:27:52.112Z,0.00
2022-12-03T05:28:52.099Z,0.00
2022-12-03T05:29:52.067Z,0.00
2022-12-03T05:30:52.192Z,0.00
2022-12-03T05:31:52.039Z,0.00
2022-12-03T05:32:52.032Z,0.00
2022-12-03T05:33:52.047Z,0.00
2022-12-03T05:34:52.412Z,0.00
2022-12-03T05:35:51.991Z,0.00
2022-12-03T05:36:52.020Z,0.00
2022-12-03T05:37:51.990Z,0.00
2022-12-03T05:38:51.988Z,0.00
2022-12-03T05:39:51.964Z,0.00
2022-12-03T05:40:51.951Z,0.00
2022-12-03T05:41:51.952Z,0.00
2022-12-03T05:42:51.961Z,0.00
2022-12-03T05:43:51.912Z,0.00
2022-12-03T05:44:52.253Z,0.00
2022-12-03T05:45:51.978Z,0.00
2022-12-03T05:46:51.898Z,0.00
2022-12-03T05:47:51.902Z,0.00
2022-12-03T05:48:51.854Z,0.00
2022-12-03T05:49:51.852Z,0.00
2022-12-03T05:50:51.858Z,0.00
2022-12-03T05:51:58.052Z,0.00
2022-12-03T05:52:51.810Z,0.00
2022-12-03T05:53:51.847Z,0.00
2022-12-03T05:54:52.256Z,0.00
2022-12-03T05:55:51.782Z,0.00
2022-12-03T05:56:51.800Z,0.00
2022-12-03T05:57:51.766Z,0.00
2022-12-03T05:58:51.803Z,0.00
2022-12-03T05:59:51.742Z,0.00
2022-12-03T06:00:51.776Z,0.00
2022-12-03T06:01:51.747Z,0.00
2022-12-03T06:02:51.831Z,0.00
2022-12-03T06:03:51.941Z,0.00
2022-12-03T06:04:52.032Z,0.00
2022-12-03T06:05:51.660Z,0.00
2022-12-03T06:06:51.686Z,0.00
2022-12-03T06:07:51.702Z,0.00
2022-12-03T06:08:51.638Z,0.00
2022-12-03T06:09:51.681Z,0.00
2022-12-03T06:10:51.625Z,0.00
2022-12-03T06:11:51.617Z,0.00
2022-12-03T06:12:51.596Z,0.00
2022-12-03T06:13:51.607Z,0.00
2022-12-03T06:14:52.051Z,0.00
2022-12-03T06:15:51.725Z,0.00
2022-12-03T06:16:51.553Z,0.00
2022-12-03T06:17:51.541Z,0.00
2022-12-03T06:18:51.533Z,0.00
2022-12-03T06:19:51.530Z,0.00
2022-12-03T06:20:51.516Z,0.00
2022-12-03T06:21:51.574Z,0.00
2022-12-03T06:22:51.482Z,0.00
2022-12-03T06:23:51.481Z,0.00
2022-12-03T06:24:51.889Z,0.00
2022-12-03T06:25:51.495Z,0.00
2022-12-03T06:26:51.449Z,0.00
2022-12-03T06:27:51.475Z,0.00
2022-12-03T06:28:51.420Z,0.00
2022-12-03T06:29:51.431Z,0.00
2022-12-03T06:30:51.537Z,0.00
2022-12-03T06:31:51.400Z,0.00
2022-12-03T06:32:51.390Z,0.00
2022-12-03T06:33:51.390Z,0.00
2022-12-03T06:34:51.786Z,0.00
2022-12-03T06:35:51.350Z,0.00
2022-12-03T06:36:51.378Z,0.00
2022-12-03T06:37:51.367Z,0.00
2022-12-03T06:38:51.353Z,0.00
2022-12-03T06:39:51.319Z,0.00
2022-12-03T06:40:51.291Z,0.00
2022-12-03T06:41:51.270Z,0.00
2022-12-03T06:42:51.278Z,0.00
2022-12-03T06:43:51.302Z,0.00
2022-12-03T06:44:51.663Z,0.00
2022-12-03T06:45:51.253Z,0.00
2022-12-03T06:46:51.306Z,0.00
2022-12-03T06:47:51.259Z,0.00
2022-12-03T06:48:51.212Z,0.00
2022-12-03T06:49:51.215Z,0.00
2022-12-03T06:50:51.227Z,0.00
2022-12-03T06:51:51.162Z,0.00
2022-12-03T06:52:51.168Z,0.00
2022-12-03T06:53:51.155Z,0.00
2022-12-03T06:54:51.333Z,0.00
2022-12-03T06:55:51.169Z,0.00
2022-12-03T06:56:51.122Z,0.00
2022-12-03T06:57:51.108Z,0.00
2022-12-03T06:58:51.116Z,0.00
2022-12-03T06:59:51.297Z,0.00
2022-12-03T07:00:51.062Z,0.00
2022-12-03T07:01:51.147Z,0.00
2022-12-03T07:02:51.122Z,4.00
2022-12-03T07:03:51.108Z,4.00
2022-12-03T07:04:51.042Z,4.00
2022-12-03T07:05:51.021Z,4.00
2022-12-03T07:06:51.017Z,4.00
2022-12-03T07:07:51.040Z,4.00
2022-12-03T07:08:50.987Z,4.00
2022-12-03T07:09:51.008Z,4.00
2022-12-03T07:10:51.037Z,4.00
2022-12-03T07:11:50.988Z,0.00
2022-12-03T07:12:50.970Z,0.00
2022-12-03T07:13:50.936Z,0.00
2022-12-03T07:14:51.264Z,4.00
2022-12-03T07:15:50.943Z,4.00
2022-12-03T07:16:50.915Z,4.00
2022-12-03T07:17:50.902Z,4.00
2022-12-03T07:18:50.916Z,4.00
2022-12-03T07:19:50.934Z,4.00
2022-12-03T07:20:50.881Z,4.00
2022-12-03T07:21:50.860Z,4.00
2022-12-03T07:22:50.854Z,4.00
2022-12-03T07:23:50.827Z,4.00
2022-12-03T07:24:51.319Z,8.00
2022-12-03T07:25:50.834Z,8.00
2022-12-03T07:26:50.821Z,4.00
2022-12-03T07:27:50.793Z,8.00
2022-12-03T07:28:50.769Z,8.00
2022-12-03T07:29:50.761Z,8.00
2022-12-03T07:30:50.748Z,12.00
2022-12-03T07:31:50.830Z,12.00
2022-12-03T07:32:51.183Z,16.00
2022-12-03T07:33:50.737Z,16.00
2022-12-03T07:34:51.001Z,16.00
2022-12-03T07:35:50.696Z,16.00
2022-12-03T07:36:50.723Z,16.00
2022-12-03T07:37:50.685Z,16.00
2022-12-03T07:38:50.710Z,20.00
2022-12-03T07:39:50.668Z,20.00
2022-12-03T07:40:50.650Z,24.00
2022-12-03T07:41:50.633Z,24.00
2022-12-03T07:42:50.631Z,28.00
2022-12-03T07:43:50.663Z,32.00
2022-12-03T07:44:50.969Z,28.00
2022-12-03T07:45:50.589Z,36.00
2022-12-03T07:46:50.672Z,36.00
2022-12-03T07:47:50.565Z,36.00
2022-12-03T07:48:50.568Z,40.00
2022-12-03T07:49:50.616Z,44.00
2022-12-03T07:50:50.563Z,44.00
2022-12-03T07:51:50.560Z,48.00
2022-12-03T07:52:50.508Z,48.00
2022-12-03T07:53:50.495Z,56.00
2022-12-03T07:54:50.633Z,56.00
2022-12-03T07:55:50.503Z,60.00
2022-12-03T07:56:50.471Z,64.00
2022-12-03T07:57:50.459Z,68.00
2022-12-03T07:58:50.437Z,72.00
2022-12-03T07:59:50.527Z,80.00
2022-12-03T08:00:50.468Z,84.00
2022-12-03T08:01:50.462Z,84.00
2022-12-03T08:02:50.480Z,88.00
2022-12-03T08:03:50.395Z,92.00
2022-12-03T08:04:50.377Z,96.00
2022-12-03T08:05:50.413Z,100.00
2022-12-03T08:06:50.370Z,104.00
2022-12-03T08:07:50.424Z,108.00
2022-12-03T08:08:50.335Z,112.00
2022-12-03T08:09:50.326Z,112.00
2022-12-03T08:10:50.322Z,116.00
2022-12-03T08:11:50.340Z,124.00
2022-12-03T08:12:50.298Z,132.00
2022-12-03T08:13:50.303Z,136.00
2022-12-03T08:14:50.288Z,140.00
2022-12-03T08:15:50.264Z,144.00
2022-12-03T08:16:50.336Z,144.00
2022-12-03T08:17:50.262Z,148.00
2022-12-03T08:18:50.254Z,156.00
2022-12-03T08:19:50.218Z,160.00
2022-12-03T08:20:50.226Z,164.00
2022-12-03T08:21:50.248Z,168.00
2022-12-03T08:22:50.185Z,172.00
2022-12-03T08:23:50.186Z,176.00
2022-12-03T08:24:50.166Z,180.00
2022-12-03T08:25:50.152Z,188.00
2022-12-03T08:26:50.146Z,192.00
2022-12-03T08:27:50.168Z,200.00
2022-12-03T08:28:50.127Z,204.00
2022-12-03T08:29:50.117Z,212.00
2022-12-03T08:30:50.110Z,212.00
2022-12-03T08:31:50.145Z,216.00
2022-12-03T08:32:50.093Z,224.00
2022-12-03T08:33:50.085Z,232.00
2022-12-03T08:34:50.099Z,240.00
2022-12-03T08:35:50.047Z,248.00
2022-12-03T08:36:50.039Z,256.00
2022-12-03T08:37:50.052Z,268.00
2022-12-03T08:38:50.050Z,272.00
2022-12-03T08:39:50.015Z,288.00
2022-12-03T08:40:50.012Z,300.00
2022-12-03T08:41:49.982Z,308.00
2022-12-03T08:42:49.992Z,316.00
2022-12-03T08:43:49.963Z,316.00
2022-12-03T08:44:49.995Z,324.00
2022-12-03T08:45:50.047Z,336.00
2022-12-03T08:46:49.947Z,344.00
2022-12-03T08:47:49.917Z,352.00
2022-12-03T08:48:49.910Z,356.00
2022-12-03T08:49:49.903Z,360.00
2022-12-03T08:50:50.258Z,368.00
2022-12-03T08:51:49.867Z,376.00
2022-12-03T08:52:49.909Z,384.00
2022-12-03T08:53:49.852Z,388.00
2022-12-03T08:54:49.842Z,396.00
2022-12-03T08:55:49.851Z,404.00
2022-12-03T08:56:49.841Z,404.00
2022-12-03T08:57:49.811Z,416.00
2022-12-03T08:58:49.795Z,420.00
2022-12-03T08:59:49.783Z,428.00
2022-12-03T09:00:49.849Z,436.00
2022-12-03T09:01:49.777Z,444.00
2022-12-03T09:02:49.772Z,448.00
2022-12-03T09:03:49.814Z,460.00
2022-12-03T09:04:49.735Z,472.00
2022-12-03T09:05:49.737Z,480.00
2022-12-03T09:06:49.723Z,488.00
2022-12-03T09:07:49.769Z,492.00
2022-12-03T09:08:49.688Z,500.00
2022-12-03T09:09:49.707Z,508.00
2022-12-03T09:10:49.658Z,520.00
2022-12-03T09:11:49.658Z,524.00
2022-12-03T09:12:49.657Z,532.00
2022-12-03T09:13:49.647Z,556.00
2022-12-03T09:14:50.202Z,576.00
2022-12-03T09:15:49.617Z,584.00
2022-12-03T09:16:49.744Z,604.00
2022-12-03T09:17:49.592Z,624.00
2022-12-03T09:18:49.581Z,632.00
2022-12-03T09:19:49.579Z,644.00
2022-12-03T09:20:49.569Z,644.00
2022-12-03T09:21:49.557Z,656.00
2022-12-03T09:22:49.592Z,656.00
2022-12-03T09:23:49.521Z,668.00
2022-12-03T09:24:49.513Z,672.00
2022-12-03T09:25:49.523Z,680.00
2022-12-03T09:26:49.483Z,692.00
2022-12-03T09:27:49.480Z,688.00
2022-12-03T09:28:49.477Z,680.00
2022-12-03T09:29:49.485Z,680.00
2022-12-03T09:30:49.455Z,704.00
2022-12-03T09:31:49.596Z,728.00
2022-12-03T09:32:49.429Z,736.00
2022-12-03T09:33:49.428Z,728.00
2022-12-03T09:34:49.417Z,732.00
2022-12-03T09:35:49.642Z,736.00
2022-12-03T09:36:49.413Z,736.00
2022-12-03T09:37:49.415Z,744.00
2022-12-03T09:38:49.375Z,752.00
2022-12-03T09:39:49.355Z,764.00
2022-12-03T09:40:49.361Z,788.00
2022-12-03T09:41:49.338Z,808.00
2022-12-03T09:42:49.327Z,820.00
2022-12-03T09:44:03.924Z,832.00
2022-12-03T09:44:49.339Z,848.00
2022-12-03T09:45:49.405Z,864.00
2022-12-03T09:46:49.285Z,868.00
2022-12-03T09:47:49.284Z,880.00
2022-12-03T09:48:49.264Z,880.00
2022-12-03T09:49:49.257Z,888.00
2022-12-03T09:50:49.271Z,900.00
2022-12-03T09:51:49.235Z,904.00
2022-12-03T09:52:49.244Z,900.00
2022-12-03T09:53:49.224Z,892.00
2022-12-03T09:54:49.197Z,880.00
2022-12-03T09:55:49.242Z,880.00
2022-12-03T09:56:49.173Z,880.00
2022-12-03T09:57:49.170Z,876.00
2022-12-03T09:58:49.158Z,876.00
2022-12-03T09:59:49.162Z,872.00
2022-12-03T10:00:49.135Z,872.00
2022-12-03T10:01:49.293Z,864.00
2022-12-03T10:02:49.188Z,864.00
2022-12-03T10:03:49.153Z,868.00
2022-12-03T10:04:49.225Z,868.00
2022-12-03T10:05:49.087Z,860.00
2022-12-03T10:06:49.084Z,872.00
2022-12-03T10:07:49.158Z,872.00
2022-12-03T10:08:49.152Z,892.00
2022-12-03T10:09:49.038Z,896.00
2022-12-03T10:10:49.034Z,896.00
2022-12-03T10:11:49.016Z,904.00
2022-12-03T10:12:48.989Z,940.00
2022-12-03T10:13:49.007Z,976.00
2022-12-03T10:14:48.983Z,988.00
2022-12-03T10:15:48.978Z,1004.00
2022-12-03T10:16:49.012Z,1012.00
2022-12-03T10:17:48.959Z,1020.00
2022-12-03T10:18:48.951Z,1032.00
2022-12-03T10:19:48.939Z,1048.00
2022-12-03T10:20:48.919Z,1048.00
2022-12-03T10:21:48.906Z,1052.00
2022-12-03T10:22:48.911Z,1048.00
2022-12-03T10:23:54.909Z,1036.00
2022-12-03T10:24:48.901Z,1024.00
2022-12-03T10:25:48.867Z,1024.00
2022-12-03T10:26:48.854Z,1032.00
2022-12-03T10:27:48.841Z,1044.00
2022-12-03T10:28:48.822Z,1048.00
2022-12-03T10:29:48.832Z,1052.00
2022-12-03T10:30:48.837Z,1056.00
2022-12-03T10:31:48.878Z,1060.00
2022-12-03T10:32:48.771Z,1064.00
2022-12-03T10:33:48.763Z,1072.00
2022-12-03T10:34:48.773Z,1076.00
2022-12-03T10:35:48.742Z,1080.00
2022-12-03T10:36:48.725Z,1084.00
2022-12-03T10:37:48.732Z,1096.00
2022-12-03T10:38:48.711Z,1104.00
2022-12-03T10:39:55.465Z,1104.00
2022-12-03T10:40:48.763Z,1112.00
2022-12-03T10:41:48.693Z,1104.00
2022-12-03T10:42:48.669Z,1100.00
2022-12-03T10:43:48.663Z,1096.00
2022-12-03T10:44:48.649Z,1092.00
2022-12-03T10:45:48.726Z,1092.00
2022-12-03T10:46:48.727Z,1092.00
2022-12-03T10:47:48.694Z,1088.00
2022-12-03T10:48:48.605Z,1088.00
2022-12-03T10:49:48.585Z,1088.00
2022-12-03T10:50:48.599Z,1088.00
2022-12-03T10:51:48.595Z,1088.00
2022-12-03T10:52:48.585Z,1088.00
2022-12-03T10:53:48.548Z,1096.00
2022-12-03T10:54:48.552Z,1100.00
2022-12-03T10:55:48.546Z,1088.00
2022-12-03T10:56:48.549Z,1080.00
2022-12-03T10:57:48.559Z,1076.00
2022-12-03T10:58:48.501Z,1080.00
2022-12-03T10:59:48.744Z,1080.00
2022-12-03T11:00:48.502Z,1096.00
2022-12-03T11:01:48.564Z,1100.00
2022-12-03T11:02:56.134Z,1084.00
2022-12-03T11:03:48.505Z,1060.00
2022-12-03T11:04:49.190Z,1044.00
2022-12-03T11:05:48.438Z,1044.00
2022-12-03T11:06:48.418Z,1048.00
2022-12-03T11:07:48.496Z,1056.00
2022-12-03T11:08:54.736Z,1056.00
2022-12-03T11:09:48.399Z,1052.00
2022-12-03T11:10:48.353Z,1048.00
2022-12-03T11:11:48.377Z,1040.00
2022-12-03T11:12:48.378Z,1028.00
2022-12-03T11:13:48.376Z,1016.00
2022-12-03T11:14:48.328Z,1012.00
2022-12-03T11:15:48.382Z,1004.00
2022-12-03T11:16:48.311Z,1008.00
2022-12-03T11:17:48.308Z,1008.00
2022-12-03T11:18:48.301Z,1008.00
2022-12-03T11:19:48.286Z,1000.00
2022-12-03T11:20:48.261Z,988.00
2022-12-03T11:21:48.276Z,980.00
2022-12-03T11:22:48.238Z,968.00
2022-12-03T11:23:48.222Z,960.00
2022-12-03T11:24:48.216Z,960.00
2022-12-03T11:25:48.217Z,964.00
2022-12-03T11:26:48.230Z,968.00
2022-12-03T11:27:48.202Z,980.00
2022-12-03T11:28:48.176Z,988.00
2022-12-03T11:29:48.180Z,988.00
2022-12-03T11:30:48.203Z,980.00
2022-12-03T11:31:48.445Z,956.00
2022-12-03T11:32:48.134Z,936.00
2022-12-03T11:33:48.101Z,932.00
2022-12-03T11:34:48.109Z,920.00
2022-12-03T11:35:48.089Z,932.00
2022-12-03T11:37:01.619Z,944.00
2022-12-03T11:37:48.147Z,940.00
2022-12-03T11:38:52.977Z,940.00
2022-12-03T11:39:48.056Z,940.00
2022-12-03T11:40:48.024Z,948.00
2022-12-03T11:41:48.024Z,956.00
2022-12-03T11:42:48.055Z,944.00
2022-12-03T11:43:48.053Z,928.00
2022-12-03T11:44:47.989Z,920.00
2022-12-03T11:45:48.023Z,928.00
2022-12-03T11:46:48.127Z,920.00
2022-12-03T11:47:47.955Z,928.00
2022-12-03T11:48:47.953Z,924.00
2022-12-03T11:49:47.963Z,912.00
2022-12-03T11:50:47.918Z,896.00
2022-12-03T11:51:47.917Z,880.00
2022-12-03T11:52:47.898Z,876.00
2022-12-03T11:53:47.926Z,864.00
2022-12-03T11:54:47.956Z,856.00
2022-12-03T11:55:47.877Z,852.00
2022-12-03T11:56:47.887Z,852.00
2022-12-03T11:57:47.867Z,856.00
2022-12-03T11:58:47.876Z,864.00
2022-12-03T11:59:47.821Z,856.00
2022-12-03T12:00:47.833Z,844.00
2022-12-03T12:01:47.825Z,824.00
2022-12-03T12:02:47.862Z,808.00
2022-12-03T12:03:48.047Z,800.00
2022-12-03T12:04:47.777Z,792.00
2022-12-03T12:05:47.770Z,784.00
2022-12-03T12:06:53.190Z,768.00
2022-12-03T12:07:47.917Z,748.00
2022-12-03T12:08:47.743Z,744.00
2022-12-03T12:09:48.279Z,744.00
2022-12-03T12:10:47.729Z,736.00
2022-12-03T12:11:47.770Z,724.00
2022-12-03T12:12:54.682Z,712.00
2022-12-03T12:13:47.698Z,700.00
2022-12-03T12:14:47.683Z,692.00
2022-12-03T12:15:47.699Z,688.00
2022-12-03T12:16:47.737Z,684.00
2022-12-03T12:17:47.727Z,676.00
2022-12-03T12:18:49.991Z,664.00
2022-12-03T12:19:54.050Z,656.00
2022-12-03T12:20:47.632Z,644.00
2022-12-03T12:21:47.623Z,644.00
2022-12-03T12:22:47.614Z,636.00
2022-12-03T12:23:47.578Z,632.00
2022-12-03T12:24:47.578Z,628.00
2022-12-03T12:25:53.812Z,616.00
2022-12-03T12:26:47.564Z,604.00
2022-12-03T12:27:47.532Z,600.00
2022-12-03T12:28:47.522Z,600.00
2022-12-03T12:29:47.522Z,596.00
2022-12-03T12:30:47.584Z,592.00
2022-12-03T12:31:52.345Z,572.00
2022-12-03T12:32:47.511Z,560.00
2022-12-03T12:33:47.469Z,548.00
2022-12-03T12:34:47.531Z,540.00
2022-12-03T12:35:47.485Z,528.00
2022-12-03T12:36:47.480Z,516.00
2022-12-03T12:37:50.069Z,508.00
2022-12-03T12:38:47.417Z,508.00
2022-12-03T12:39:47.409Z,496.00
2022-12-03T12:40:47.433Z,480.00
2022-12-03T12:41:47.419Z,468.00
2022-12-03T12:42:47.420Z,452.00
2022-12-03T12:43:47.366Z,444.00
2022-12-03T12:44:47.355Z,436.00
2022-12-03T12:45:47.356Z,428.00
2022-12-03T12:46:48.631Z,416.00
2022-12-03T12:47:47.458Z,408.00
2022-12-03T12:48:47.329Z,400.00
2022-12-03T12:49:51.577Z,400.00
2022-12-03T12:50:47.294Z,392.00
2022-12-03T12:51:47.302Z,380.00
2022-12-03T12:52:47.245Z,376.00
2022-12-03T12:53:47.287Z,372.00
2022-12-03T12:54:47.253Z,368.00
2022-12-03T12:55:47.261Z,360.00